Time;durP1;ratioP1;P1;durP2;ratioP2;P2;SDS_P1;SDS_P2;PMS_P1;PMS_P2;Temp;Humidity;BMP_temperature;BMP_pressure;BME280_temperature;BME280_humidity;BME280_pressure;Samples;Min_cycle;Max_cycle;Signal;HPM_P1;HPM_P2
2022/11/18 00:00:45;;;;;;;;;;;;;;;14.67;74.28;99117.22;1265640;23;596;-75
2022/11/18 00:01:35;;;;;;;;;;;;;;;14.65;74.53;99121.91;1265712;23;649;-75
2022/11/18 00:02:26;;;;;;;;;;;;;;;14.63;74.67;99123.91;1265442;23;650;-75
2022/11/18 00:03:16;;;;;;;;;;;;;;;14.65;74.55;99128.09;1265458;23;1292;-74
2022/11/18 00:04:07;;;;;;;;;;;;;;;14.66;74.36;99129.78;1265309;23;627;-73
2022/11/18 00:04:57;;;;;;;;;;;;;;;14.64;74.36;99129.09;1265630;23;665;-75
2022/11/18 00:05:47;;;;;;;;;;;;;;;14.67;74.46;99134.16;1265857;23;723;-73
2022/11/18 00:06:38;;;;;;;;;;;;;;;14.65;74.46;99125.44;1265529;23;614;-73
2022/11/18 00:07:28;;;;;;;;;;;;;;;14.62;74.69;99131.13;1265653;23;622;-73
2022/11/18 00:08:19;;;;;;;;;;;;;;;14.65;74.34;99130.78;1265346;23;670;-72
2022/11/18 00:09:09;;;;;;;;;;;;;;;14.63;74.53;99130.13;1265676;23;677;-72
2022/11/18 00:10:00;;;;;;;;;;;;;;;14.63;74.63;99132.78;1265447;23;627;-73
2022/11/18 00:10:50;;;;;;;;;;;;;;;14.63;74.35;99140.00;1265595;23;630;-73
2022/11/18 00:15:08;;;;;;;;;;;;;;;14.61;74.97;99140.16;1268170;23;660;-74
2022/11/18 00:15:58;;;;;;;;;;;;;;;14.61;74.89;99134.81;1267102;23;645;-73
2022/11/18 00:16:49;;;;;;;;;;;;;;;14.62;74.61;99133.78;1265434;23;614;-73
2022/11/18 00:17:39;;;;;;;;;;;;;;;14.62;74.40;99141.00;1264884;23;669;-73
2022/11/18 00:18:29;;;;;;;;;;;;;;;14.65;74.37;99141.50;1260775;23;673;-73
2022/11/18 00:19:20;;;;;;;;;;;;;;;14.59;74.49;99137.66;1257285;23;614;-73
2022/11/18 00:20:10;;;;;;;;;;;;;;;14.56;74.75;99137.97;1260873;23;622;-73
2022/11/18 00:21:01;;;;;;;;;;;;;;;14.58;74.81;99135.97;1267129;23;653;-73
2022/11/18 00:21:51;;;;;;;;;;;;;;;14.58;74.70;99140.50;1265069;23;654;-72
2022/11/18 00:22:42;;;;;;;;;;;;;;;14.59;74.93;99142.16;1260669;23;633;-72
2022/11/18 00:23:32;;;;;;;;;;;;;;;14.58;74.40;99146.69;1261749;23;578;-73
2022/11/18 00:24:23;;;;;;;;;;;;;;;14.60;74.71;99149.22;1267315;23;617;-74
2022/11/18 00:25:13;;;;;;;;;;;;;;;14.59;74.55;99153.72;1265678;23;630;-74
2022/11/18 00:26:04;;;;;;;;;;;;;;;14.60;74.94;99154.56;1265342;23;1954;-73
2022/11/18 00:26:54;;;;;;;;;;;;;;;14.57;74.79;99155.75;1265561;23;670;-74
2022/11/18 00:27:45;;;;;;;;;;;;;;;14.53;74.99;99156.22;1267208;23;623;-74
2022/11/18 00:28:35;;;;;;;;;;;;;;;14.55;74.82;99156.91;1265448;23;605;-74
2022/11/18 00:29:27;;;;;;;;;;;;;;;14.56;74.44;99161.25;1265296;23;630;-74
2022/11/18 00:30:17;;;;;;;;;;;;;;;14.57;74.82;99157.56;1266286;23;700;-74
2022/11/18 00:31:07;;;;;;;;;;;;;;;14.60;74.62;99165.28;1266285;23;689;-74
2022/11/18 00:31:58;;;;;;;;;;;;;;;14.58;74.49;99167.28;1265800;23;700;-73
2022/11/18 00:32:48;;;;;;;;;;;;;;;14.57;74.76;99165.63;1265702;23;575;-74
2022/11/18 00:33:39;;;;;;;;;;;;;;;14.57;74.71;99171.81;1265426;23;650;-74
2022/11/18 00:34:29;;;;;;;;;;;;;;;14.53;74.69;99172.31;1260838;23;686;-73
2022/11/18 00:35:20;;;;;;;;;;;;;;;14.55;74.82;99165.78;1259886;23;653;-74
2022/11/18 00:36:10;;;;;;;;;;;;;;;14.57;74.88;99171.81;1267284;23;700;-74
2022/11/18 00:37:00;;;;;;;;;;;;;;;14.58;74.57;99172.66;1267089;23;681;-74
2022/11/18 00:37:51;;;;;;;;;;;;;;;14.57;74.79;99168.31;1265484;23;638;-74
2022/11/18 00:38:41;;;;;;;;;;;;;;;14.56;74.63;99169.31;1267154;23;677;-74
2022/11/18 00:39:32;;;;;;;;;;;;;;;14.55;74.78;99168.47;1265472;23;804;-74
2022/11/18 00:40:22;;;;;;;;;;;;;;;14.56;74.57;99169.31;1265589;23;539;-74
2022/11/18 00:41:13;;;;;;;;;;;;;;;14.54;74.65;99176.66;1265365;23;626;-74
2022/11/18 00:43:12;;;;;;;;;;;;;;;14.58;74.37;99178.84;1268059;23;661;-74
2022/11/18 00:44:03;;;;;;;;;;;;;;;14.57;74.70;99181.69;1267428;23;681;-73
2022/11/18 00:44:53;;;;;;;;;;;;;;;14.57;74.82;99174.50;1267613;23;664;-73
2022/11/18 00:45:44;;;;;;;;;;;;;;;14.55;74.96;99178.34;1266760;23;669;-74
2022/11/18 00:46:34;;;;;;;;;;;;;;;14.55;74.90;99178.34;1265399;23;673;-74
2022/11/18 00:47:25;;;;;;;;;;;;;;;14.55;74.47;99184.53;1261198;23;991;-74
2022/11/18 00:48:20;;;;;;;;;;;;;;;14.55;74.80;99183.72;1260466;23;693;-74
2022/11/18 00:49:10;;;;;;;;;;;;;;;14.52;74.75;99184.88;1267636;23;637;-74
2022/11/18 00:50:01;;;;;;;;;;;;;;;14.57;74.73;99182.53;1261150;23;682;-74
2022/11/18 00:50:51;;;;;;;;;;;;;;;14.54;74.97;99188.22;1261871;23;661;-74
2022/11/18 00:51:42;;;;;;;;;;;;;;;14.54;74.71;99184.72;1267587;23;673;-74
2022/11/18 00:52:32;;;;;;;;;;;;;;;14.55;74.45;99187.22;1265820;23;657;-74
2022/11/18 00:53:22;;;;;;;;;;;;;;;14.53;74.95;99191.06;1266234;23;737;-74
2022/11/18 00:54:13;;;;;;;;;;;;;;;14.52;74.66;99186.72;1265761;23;647;-74
2022/11/18 00:55:03;;;;;;;;;;;;;;;14.53;75.21;99188.41;1261163;23;642;-74
2022/11/18 00:55:54;;;;;;;;;;;;;;;14.51;74.92;99188.56;1262033;23;666;-74
2022/11/18 00:56:44;;;;;;;;;;;;;;;14.52;74.71;99189.41;1267593;23;653;-74
2022/11/18 00:57:35;;;;;;;;;;;;;;;14.51;74.73;99193.91;1265714;23;623;-74
2022/11/18 00:58:25;;;;;;;;;;;;;;;14.50;75.06;99194.94;1265886;23;709;-74
2022/11/18 00:59:16;;;;;;;;;;;;;;;14.52;74.70;99200.13;1265629;23;622;-74
2022/11/18 01:00:06;;;;;;;;;;;;;;;14.52;74.99;99192.06;1265875;23;665;-74
2022/11/18 01:00:57;;;;;;;;;;;;;;;14.52;75.19;99192.06;1266096;23;635;-74
2022/11/18 01:01:47;;;;;;;;;;;;;;;14.53;75.17;99196.44;1265855;23;626;-73
2022/11/18 01:02:38;;;;;;;;;;;;;;;14.52;74.56;99197.44;1264935;23;589;-74
2022/11/18 01:03:28;;;;;;;;;;;;;;;14.49;74.53;99192.44;1265769;23;1103;-73
2022/11/18 01:04:19;;;;;;;;;;;;;;;14.52;74.85;99194.75;1265795;23;622;-74
2022/11/18 01:05:09;;;;;;;;;;;;;;;14.52;75.02;99195.59;1265956;23;712;-73
2022/11/18 01:06:00;;;;;;;;;;;;;;;14.52;74.90;99192.91;1266561;23;708;-74
2022/11/18 01:06:50;;;;;;;;;;;;;;;14.48;74.99;99194.28;1265987;23;630;-73
2022/11/18 01:07:40;;;;;;;;;;;;;;;14.47;75.03;99191.75;1267440;23;653;-74
2022/11/18 01:08:31;;;;;;;;;;;;;;;14.49;74.89;99195.94;1265862;23;587;-74
2022/11/18 01:09:21;;;;;;;;;;;;;;;14.55;75.03;99194.44;1265952;23;666;-72
2022/11/18 01:10:12;;;;;;;;;;;;;;;14.53;74.97;99194.59;1265728;23;654;-73
2022/11/18 01:13:21;;;;;;;;;;;;;;;14.47;75.00;99197.13;1268439;23;649;-73
2022/11/18 01:14:12;;;;;;;;;;;;;;;14.47;75.20;99203.31;1265643;23;607;-73
2022/11/18 01:15:02;;;;;;;;;;;;;;;14.47;75.15;99205.16;1265879;23;598;-73
2022/11/18 01:15:53;;;;;;;;;;;;;;;14.50;74.66;99203.00;1265685;23;654;-73
2022/11/18 01:16:43;;;;;;;;;;;;;;;14.50;75.04;99204.84;1261003;23;610;-73
2022/11/18 01:17:34;;;;;;;;;;;;;;;14.46;75.04;99208.84;1262202;23;658;-73
2022/11/18 01:18:24;;;;;;;;;;;;;;;14.48;74.78;99204.16;1262768;23;673;-73
2022/11/18 01:19:14;;;;;;;;;;;;;;;14.51;74.66;99210.00;1261251;23;626;-73
2022/11/18 01:20:05;;;;;;;;;;;;;;;14.49;74.83;99213.88;1267197;23;634;-73
2022/11/18 01:20:55;;;;;;;;;;;;;;;14.47;74.89;99215.88;1266005;23;658;-73
2022/11/18 01:21:46;;;;;;;;;;;;;;;14.47;74.78;99214.03;1265684;23;622;-73
2022/11/18 01:22:36;;;;;;;;;;;;;;;14.50;74.90;99212.88;1267458;23;615;-73
2022/11/18 01:23:27;;;;;;;;;;;;;;;14.48;75.19;99205.00;1265966;23;662;-73
2022/11/18 01:24:17;;;;;;;;;;;;;;;14.51;74.67;99210.00;1267327;23;669;-73
2022/11/18 01:25:07;;;;;;;;;;;;;;;14.50;75.14;99216.38;1265874;23;622;-74
2022/11/18 01:25:58;;;;;;;;;;;;;;;14.49;74.97;99217.41;1265768;23;654;-73
2022/11/18 01:26:48;;;;;;;;;;;;;;;14.46;75.04;99215.03;1265890;23;737;-73
2022/11/18 01:27:39;;;;;;;;;;;;;;;14.47;74.71;99218.56;1266467;23;658;-72
2022/11/18 01:28:30;;;;;;;;;;;;;;;14.49;74.59;99221.91;1265655;23;691;-72
2022/11/18 01:29:20;;;;;;;;;;;;;;;14.45;75.11;99217.88;1265959;23;662;-73
2022/11/18 01:30:11;;;;;;;;;;;;;;;14.42;74.90;99221.72;1265429;23;630;-73
2022/11/18 01:31:01;;;;;;;;;;;;;;;14.43;75.48;99223.41;1265743;23;654;-72
2022/11/18 01:31:51;;;;;;;;;;;;;;;14.48;75.08;99228.28;1265983;23;650;-74
2022/11/18 01:32:42;;;;;;;;;;;;;;;14.49;74.91;99240.69;1265674;23;551;-73
2022/11/18 01:33:32;;;;;;;;;;;;;;;14.47;74.60;99235.47;1265947;23;740;-73
2022/11/18 01:34:23;;;;;;;;;;;;;;;14.48;74.96;99228.28;1265681;23;638;-74
2022/11/18 01:35:13;;;;;;;;;;;;;;;14.49;74.74;99232.63;1265911;23;661;-73
2022/11/18 01:36:03;;;;;;;;;;;;;;;14.44;74.56;99234.97;1266018;23;673;-74
2022/11/18 01:36:56;;;;;;;;;;;;;;;14.47;75.28;99234.63;1265799;23;563;-73
2022/11/18 01:37:46;;;;;;;;;;;;;;;14.46;75.13;99238.31;1264981;23;638;-72
2022/11/18 01:38:36;;;;;;;;;;;;;;;14.46;74.83;99238.31;1266150;23;645;-73
2022/11/18 01:39:27;;;;;;;;;;;;;;;14.46;75.10;99235.63;1265841;23;607;-73
2022/11/18 01:40:17;;;;;;;;;;;;;;;14.44;74.92;99226.91;1265805;23;642;-73
2022/11/18 01:41:08;;;;;;;;;;;;;;;14.42;74.85;99228.91;1265480;23;658;-73
2022/11/18 01:41:58;;;;;;;;;;;;;;;14.45;74.99;99237.47;1265900;23;658;-73
2022/11/18 01:42:49;;;;;;;;;;;;;;;14.46;75.04;99238.31;1260983;23;606;-74
2022/11/18 01:43:39;;;;;;;;;;;;;;;14.43;74.81;99235.97;1261912;23;745;-73
2022/11/18 01:44:29;;;;;;;;;;;;;;;14.41;75.06;99238.81;1266955;23;818;-72
2022/11/18 01:45:20;;;;;;;;;;;;;;;14.42;75.26;99242.31;1265680;23;630;-73
2022/11/18 01:46:10;;;;;;;;;;;;;;;14.42;75.05;99247.69;1265726;23;1996;-73
2022/11/18 01:47:01;;;;;;;;;;;;;;;14.39;74.89;99248.81;1265640;23;621;-73
2022/11/18 01:47:51;;;;;;;;;;;;;;;14.43;75.18;99244.84;1265762;23;633;-73
2022/11/18 01:48:42;;;;;;;;;;;;;;;14.43;75.08;99249.38;1266643;23;673;-73
2022/11/18 01:49:32;;;;;;;;;;;;;;;14.43;74.89;99250.19;1265823;23;634;-73
2022/11/18 01:50:22;;;;;;;;;;;;;;;14.40;75.25;99250.53;1265963;23;650;-73
2022/11/18 01:51:13;;;;;;;;;;;;;;;14.40;75.01;99255.00;1265638;23;630;-73
2022/11/18 01:52:04;;;;;;;;;;;;;;;14.39;75.13;99251.50;1265338;23;608;-73
2022/11/18 01:52:54;;;;;;;;;;;;;;;14.38;75.29;99243.59;1265726;23;694;-73
2022/11/18 01:53:44;;;;;;;;;;;;;;;14.42;74.89;99255.72;1265834;23;818;-74
2022/11/18 01:54:35;;;;;;;;;;;;;;;14.39;74.96;99248.81;1265498;23;728;-74
2022/11/18 01:55:25;;;;;;;;;;;;;;;14.40;74.87;99252.31;1265841;23;676;-74
2022/11/18 01:56:16;;;;;;;;;;;;;;;14.41;75.14;99251.38;1265633;23;611;-74
2022/11/18 01:57:06;;;;;;;;;;;;;;;14.40;75.04;99255.88;1265808;23;689;-74
2022/11/18 01:57:57;;;;;;;;;;;;;;;14.39;74.92;99256.84;1265912;23;669;-74
2022/11/18 01:58:47;;;;;;;;;;;;;;;14.40;75.05;99255.00;1260362;23;657;-74
2022/11/18 01:59:37;;;;;;;;;;;;;;;14.39;75.46;99247.97;1261848;23;586;-74
2022/11/18 02:00:28;;;;;;;;;;;;;;;14.39;74.94;99256.00;1267489;23;625;-74
2022/11/18 02:01:18;;;;;;;;;;;;;;;14.39;75.38;99259.53;1267445;23;692;-74
2022/11/18 02:02:09;;;;;;;;;;;;;;;14.36;74.92;99253.66;1265568;23;658;-75
2022/11/18 02:02:59;;;;;;;;;;;;;;;14.37;75.48;99260.69;1265717;23;574;-74
2022/11/18 02:03:50;;;;;;;;;;;;;;;14.41;75.15;99256.72;1265998;23;619;-73
2022/11/18 02:04:40;;;;;;;;;;;;;;;14.39;75.13;99253.31;1265642;23;647;-72
2022/11/18 02:05:32;;;;;;;;;;;;;;;14.39;75.16;99258.69;1265865;23;709;-73
2022/11/18 02:06:22;;;;;;;;;;;;;;;14.40;74.87;99253.19;1266590;23;1897;-74
2022/11/18 02:07:13;;;;;;;;;;;;;;;14.40;74.89;99263.91;1265763;23;666;-73
2022/11/18 02:08:03;;;;;;;;;;;;;;;14.38;74.83;99257.00;1265807;23;645;-72
2022/11/18 02:08:54;;;;;;;;;;;;;;;14.38;75.35;99262.38;1266439;23;696;-72
2022/11/18 02:09:44;;;;;;;;;;;;;;;14.38;75.28;99252.50;1265795;23;674;-73
2022/11/18 02:10:34;;;;;;;;;;;;;;;14.43;75.06;99260.09;1265812;23;665;-72
2022/11/18 02:12:34;;;;;;;;;;;;;;;14.40;74.91;99260.38;1268403;23;625;-73
2022/11/18 02:13:24;;;;;;;;;;;;;;;14.37;75.40;99260.69;1265229;23;657;-73
2022/11/18 02:14:15;;;;;;;;;;;;;;;14.41;75.08;99273.63;1260875;23;676;-73
2022/11/18 02:15:05;;;;;;;;;;;;;;;14.38;75.03;99267.72;1257435;23;610;-73
2022/11/18 02:15:56;;;;;;;;;;;;;;;14.37;75.28;99271.41;1260998;23;653;-72
2022/11/18 02:16:46;;;;;;;;;;;;;;;14.36;75.21;99267.06;1266556;23;637;-74
2022/11/18 02:17:36;;;;;;;;;;;;;;;14.40;74.96;99268.41;1265780;23;682;-73
2022/11/18 02:18:27;;;;;;;;;;;;;;;14.39;75.02;99261.38;1265657;23;602;-73
2022/11/18 02:19:17;;;;;;;;;;;;;;;14.37;75.51;99263.38;1265783;23;685;-74
2022/11/18 02:20:08;;;;;;;;;;;;;;;14.35;75.36;99262.69;1265522;23;991;-74
2022/11/18 02:20:58;;;;;;;;;;;;;;;14.34;75.14;99263.69;1265626;23;634;-74
2022/11/18 02:21:48;;;;;;;;;;;;;;;14.33;75.19;99260.16;1260890;23;701;-74
2022/11/18 02:22:39;;;;;;;;;;;;;;;14.37;74.97;99266.06;1261897;23;602;-74
2022/11/18 02:23:29;;;;;;;;;;;;;;;14.41;75.30;99267.44;1262656;23;661;-74
2022/11/18 02:24:20;;;;;;;;;;;;;;;14.40;75.08;99268.41;1255001;23;611;-74
2022/11/18 02:25:10;;;;;;;;;;;;;;;14.39;75.47;99266.72;1260856;23;610;-74
2022/11/18 02:26:01;;;;;;;;;;;;;;;14.35;75.05;99268.03;1267194;23;658;-74
2022/11/18 02:26:51;;;;;;;;;;;;;;;14.34;75.12;99267.22;1265790;23;658;-74
2022/11/18 02:27:42;;;;;;;;;;;;;;;14.35;75.28;99276.94;1261044;23;705;-74
2022/11/18 02:28:32;;;;;;;;;;;;;;;14.35;75.52;99273.41;1260364;23;625;-74
2022/11/18 02:29:22;;;;;;;;;;;;;;;14.31;75.04;99278.28;1267531;23;669;-74
2022/11/18 02:30:13;;;;;;;;;;;;;;;14.33;75.45;99275.44;1265483;23;784;-74
2022/11/18 02:31:03;;;;;;;;;;;;;;;14.32;75.26;99271.06;1265717;23;650;-74
2022/11/18 02:31:54;;;;;;;;;;;;;;;14.32;75.75;99279.13;1267321;23;720;-74
2022/11/18 02:32:44;;;;;;;;;;;;;;;14.35;75.69;99278.78;1265766;23;697;-74
2022/11/18 02:33:35;;;;;;;;;;;;;;;14.33;75.09;99286.16;1265822;23;634;-74
2022/11/18 02:34:25;;;;;;;;;;;;;;;14.32;75.53;99281.78;1267253;23;535;-74
2022/11/18 02:35:15;;;;;;;;;;;;;;;14.32;75.23;99282.63;1265674;23;673;-74
2022/11/18 02:36:06;;;;;;;;;;;;;;;14.33;75.65;99278.94;1267358;23;582;-73
2022/11/18 02:36:56;;;;;;;;;;;;;;;14.37;75.14;99287.50;1265725;23;658;-74
2022/11/18 02:37:47;;;;;;;;;;;;;;;14.34;75.31;99283.28;1261010;23;642;-74
2022/11/18 02:38:37;;;;;;;;;;;;;;;14.39;75.24;99290.84;1261705;23;649;-74
2022/11/18 02:39:28;;;;;;;;;;;;;;;14.38;74.88;99284.66;1267333;23;799;-74
2022/11/18 02:40:18;;;;;;;;;;;;;;;14.34;75.64;99282.44;1267310;23;661;-74
2022/11/18 02:41:09;;;;;;;;;;;;;;;14.35;75.43;99284.13;1266521;23;708;-73
2022/11/18 02:41:59;;;;;;;;;;;;;;;14.37;75.40;99292.84;1265513;23;666;-73
2022/11/18 02:42:50;;;;;;;;;;;;;;;14.35;75.34;99278.78;1265896;23;678;-74
2022/11/18 02:43:40;;;;;;;;;;;;;;;14.33;75.45;99284.28;1265533;23;661;-74
2022/11/18 02:44:30;;;;;;;;;;;;;;;14.33;75.42;99286.97;1265866;23;551;-74
2022/11/18 02:45:21;;;;;;;;;;;;;;;14.31;75.22;99289.00;1265587;23;627;-74
2022/11/18 02:46:11;;;;;;;;;;;;;;;14.31;75.05;99291.69;1265712;23;1885;-74
2022/11/18 02:47:02;;;;;;;;;;;;;;;14.32;75.14;99293.34;1265456;23;650;-74
2022/11/18 02:47:52;;;;;;;;;;;;;;;14.33;75.22;99292.31;1265647;23;622;-74
2022/11/18 02:48:43;;;;;;;;;;;;;;;14.29;75.37;99288.31;1265834;23;665;-74
2022/11/18 02:49:33;;;;;;;;;;;;;;;14.32;75.70;99292.50;1265583;23;677;-74
2022/11/18 02:50:23;;;;;;;;;;;;;;;14.30;75.77;99289.16;1261037;23;697;-74
2022/11/18 02:51:14;;;;;;;;;;;;;;;14.33;75.58;99297.69;1261875;23;630;-74
2022/11/18 02:52:04;;;;;;;;;;;;;;;14.34;75.16;99293.16;1265663;23;653;-74
2022/11/18 02:52:55;;;;;;;;;;;;;;;14.30;75.09;99295.34;1266354;23;760;-74
2022/11/18 02:53:45;;;;;;;;;;;;;;;14.37;75.00;99298.22;1265624;23;602;-73
2022/11/18 02:54:36;;;;;;;;;;;;;;;14.30;75.69;99291.84;1265853;23;611;-73
2022/11/18 02:55:26;;;;;;;;;;;;;;;14.31;75.18;99298.88;1265570;23;626;-73
2022/11/18 02:56:16;;;;;;;;;;;;;;;14.29;75.32;99304.41;1265573;23;662;-73
2022/11/18 02:57:07;;;;;;;;;;;;;;;14.30;75.35;99295.34;1265831;23;650;-73
2022/11/18 02:57:57;;;;;;;;;;;;;;;14.30;75.68;99303.41;1265560;23;666;-73
2022/11/18 02:58:48;;;;;;;;;;;;;;;14.31;75.49;99302.41;1267370;23;606;-73
2022/11/18 02:59:38;;;;;;;;;;;;;;;14.32;75.54;99305.91;1265632;23;647;-73
2022/11/18 03:00:28;;;;;;;;;;;;;;;14.29;75.26;99303.56;1265768;23;642;-74
2022/11/18 03:01:19;;;;;;;;;;;;;;;14.28;75.92;99300.03;1265397;23;666;-73
2022/11/18 03:02:09;;;;;;;;;;;;;;;14.26;75.36;99307.38;1265740;23;682;-74
2022/11/18 03:03:00;;;;;;;;;;;;;;;14.29;75.27;99300.88;1260866;23;627;-73
2022/11/18 03:03:50;;;;;;;;;;;;;;;14.29;75.01;99303.56;1261712;23;653;-74
2022/11/18 03:04:41;;;;;;;;;;;;;;;14.32;75.55;99308.59;1266394;23;661;-73
2022/11/18 03:05:31;;;;;;;;;;;;;;;14.33;75.51;99307.59;1265656;23;650;-73
2022/11/18 03:06:22;;;;;;;;;;;;;;;14.33;74.99;99308.41;1265487;23;1948;-73
2022/11/18 03:07:12;;;;;;;;;;;;;;;14.30;75.27;99314.13;1265457;23;611;-73
2022/11/18 03:08:02;;;;;;;;;;;;;;;14.25;75.22;99311.91;1267356;23;847;-73
2022/11/18 03:08:53;;;;;;;;;;;;;;;14.25;75.10;99306.53;1267354;23;614;-73
2022/11/18 03:09:43;;;;;;;;;;;;;;;14.25;75.38;99306.53;1265649;23;615;-73
2022/11/18 03:10:34;;;;;;;;;;;;;;;14.31;75.64;99312.28;1265810;23;632;-73
2022/11/18 03:11:24;;;;;;;;;;;;;;;14.28;75.48;99315.25;1264823;23;646;-73
2022/11/18 03:12:14;;;;;;;;;;;;;;;14.28;75.36;99309.91;1265712;23;681;-74
2022/11/18 03:13:05;;;;;;;;;;;;;;;14.29;74.99;99309.75;1265531;23;693;-74
2022/11/18 03:13:55;;;;;;;;;;;;;;;14.30;75.39;99307.91;1265641;23;804;-73
2022/11/18 03:14:46;;;;;;;;;;;;;;;14.32;75.21;99313.94;1265448;23;638;-74
2022/11/18 03:15:36;;;;;;;;;;;;;;;14.32;75.33;99322.00;1265565;23;653;-74
2022/11/18 03:16:27;;;;;;;;;;;;;;;14.29;75.33;99317.78;1260984;23;645;-73
2022/11/18 03:17:17;;;;;;;;;;;;;;;14.30;75.02;99319.47;1261790;23;641;-74
2022/11/18 03:18:07;;;;;;;;;;;;;;;14.29;74.81;99317.78;1267304;23;681;-73
2022/11/18 03:18:58;;;;;;;;;;;;;;;14.29;75.00;99322.31;1265375;23;654;-74
2022/11/18 03:19:48;;;;;;;;;;;;;;;14.29;75.35;99322.31;1265596;23;626;-74
2022/11/18 03:20:39;;;;;;;;;;;;;;;14.28;75.04;99328.66;1260760;23;642;-74
2022/11/18 03:21:29;;;;;;;;;;;;;;;14.26;75.58;99334.19;1261793;23;634;-74
2022/11/18 03:22:20;;;;;;;;;;;;;;;14.24;75.50;99325.47;1262463;23;645;-74
2022/11/18 03:23:10;;;;;;;;;;;;;;;14.28;75.43;99331.34;1260810;23;646;-74
2022/11/18 03:24:00;;;;;;;;;;;;;;;14.29;75.41;99328.50;1267180;23;622;-74
2022/11/18 03:24:51;;;;;;;;;;;;;;;14.29;75.42;99323.16;1266402;23;693;-74
2022/11/18 03:25:41;;;;;;;;;;;;;;;14.28;75.07;99332.19;1265549;23;668;-74
2022/11/18 03:26:32;;;;;;;;;;;;;;;14.25;75.32;99333.34;1265724;23;1893;-73
2022/11/18 03:27:22;;;;;;;;;;;;;;;14.26;75.09;99328.81;1265536;23;638;-74
2022/11/18 03:28:13;;;;;;;;;;;;;;;14.29;75.21;99333.03;1260778;23;661;-73
2022/11/18 03:29:03;;;;;;;;;;;;;;;14.29;75.22;99333.88;1260107;23;622;-74
2022/11/18 03:29:53;;;;;;;;;;;;;;;14.25;75.29;99341.38;1267455;23;700;-73
2022/11/18 03:30:44;;;;;;;;;;;;;;;14.24;75.21;99339.69;1267263;23;685;-73
2022/11/18 03:31:34;;;;;;;;;;;;;;;14.25;75.33;99338.69;1267232;23;649;-73
2022/11/18 03:32:25;;;;;;;;;;;;;;;14.27;75.26;99343.91;1265807;23;622;-72
2022/11/18 03:33:15;;;;;;;;;;;;;;;14.27;74.95;99335.03;1260817;23;630;-74
2022/11/18 03:34:05;;;;;;;;;;;;;;;14.28;75.01;99344.75;1261707;23;665;-74
2022/11/18 03:34:56;;;;;;;;;;;;;;;14.25;75.06;99338.69;1267291;23;614;-74
2022/11/18 03:35:46;;;;;;;;;;;;;;;14.25;75.24;99341.38;1265577;23;672;-73
2022/11/18 03:36:37;;;;;;;;;;;;;;;14.28;75.18;99344.75;1265807;23;670;-72
2022/11/18 03:37:27;;;;;;;;;;;;;;;14.27;75.09;99349.25;1260789;23;626;-73
2022/11/18 03:38:18;;;;;;;;;;;;;;;14.27;75.58;99345.75;1261757;23;637;-73
2022/11/18 03:39:08;;;;;;;;;;;;;;;14.24;75.01;99342.38;1267260;23;641;-74
2022/11/18 03:39:58;;;;;;;;;;;;;;;14.23;75.47;99345.22;1265622;23;688;-74
2022/11/18 03:40:49;;;;;;;;;;;;;;;14.24;75.08;99341.53;1265378;23;623;-74
2022/11/18 03:41:39;;;;;;;;;;;;;;;14.23;75.10;99343.38;1260753;23;665;-74
2022/11/18 03:42:30;;;;;;;;;;;;;;;14.25;75.10;99344.06;1261811;23;805;-73
2022/11/18 03:43:20;;;;;;;;;;;;;;;14.27;75.43;99351.09;1262609;23;664;-74
2022/11/18 03:44:11;;;;;;;;;;;;;;;14.24;74.72;99353.09;1260853;23;661;-74
2022/11/18 03:45:01;;;;;;;;;;;;;;;14.20;75.15;99351.72;1267051;23;657;-73
2022/11/18 03:45:51;;;;;;;;;;;;;;;14.22;75.81;99356.94;1265580;23;666;-73
2022/11/18 03:46:42;;;;;;;;;;;;;;;14.21;74.76;99356.09;1266332;23;1995;-73
2022/11/18 03:47:32;;;;;;;;;;;;;;;14.20;75.09;99354.41;1265575;23;644;-73
2022/11/18 03:48:23;;;;;;;;;;;;;;;14.20;75.34;99362.44;1265747;23;697;-74
2022/11/18 03:49:13;;;;;;;;;;;;;;;14.22;75.44;99360.44;1260773;23;606;-73
2022/11/18 03:50:04;;;;;;;;;;;;;;;14.21;75.15;99360.59;1261669;23;617;-74
2022/11/18 03:50:54;;;;;;;;;;;;;;;14.21;74.98;99366.81;1267348;23;642;-74
2022/11/18 03:51:44;;;;;;;;;;;;;;;14.17;75.53;99369.94;1266608;23;738;-74
2022/11/18 03:52:35;;;;;;;;;;;;;;;14.18;75.36;99367.13;1266351;23;696;-74
2022/11/18 03:53:25;;;;;;;;;;;;;;;14.21;75.70;99363.28;1265622;23;614;-73
2022/11/18 03:54:16;;;;;;;;;;;;;;;14.22;75.46;99368.50;1265643;23;676;-73
2022/11/18 03:55:06;;;;;;;;;;;;;;;14.22;75.57;99367.66;1266660;23;653;-73
2022/11/18 03:55:57;;;;;;;;;;;;;;;14.21;75.35;99369.47;1265653;23;646;-73
2022/11/18 03:56:47;;;;;;;;;;;;;;;14.21;75.20;99368.66;1265334;23;618;-73
2022/11/18 03:57:38;;;;;;;;;;;;;;;14.19;75.60;99366.13;1265546;23;618;-73
2022/11/18 03:58:28;;;;;;;;;;;;;;;14.23;75.69;99374.69;1265356;23;654;-73
2022/11/18 03:59:28;;;;;;;;;;;;;;;14.26;75.41;99371.69;1265910;23;666;-74
2022/11/18 04:00:19;;;;;;;;;;;;;;;14.26;74.94;99377.06;1267240;23;692;-74
2022/11/18 04:01:09;;;;;;;;;;;;;;;14.27;74.74;99372.53;1264537;23;650;-73
2022/11/18 04:02:00;;;;;;;;;;;;;;;14.25;75.54;99370.00;1265647;23;622;-73
2022/11/18 04:02:50;;;;;;;;;;;;;;;14.21;75.76;99368.66;1265392;23;642;-73
2022/11/18 04:03:40;;;;;;;;;;;;;;;14.18;75.88;99368.94;1265571;23;772;-74
2022/11/18 04:04:31;;;;;;;;;;;;;;;14.19;75.29;99376.84;1265444;23;673;-74
2022/11/18 04:05:21;;;;;;;;;;;;;;;14.22;75.06;99371.16;1265629;23;650;-74
2022/11/18 04:06:12;;;;;;;;;;;;;;;14.25;75.40;99370.84;1265823;23;638;-74
2022/11/18 04:07:02;;;;;;;;;;;;;;;14.22;75.04;99379.19;1267198;23;614;-74
2022/11/18 04:07:53;;;;;;;;;;;;;;;14.21;75.25;99380.19;1265665;23;623;-74
2022/11/18 04:08:43;;;;;;;;;;;;;;;14.17;75.18;99378.81;1265437;23;646;-74
2022/11/18 04:09:34;;;;;;;;;;;;;;;14.17;75.44;99368.13;1265234;23;614;-74
2022/11/18 04:10:25;;;;;;;;;;;;;;;14.12;75.30;99381.16;1265033;23;650;-74
2022/11/18 04:12:01;;;;;;;;;;;;;;;14.14;75.83;99383.69;1265364;23;650;-74
2022/11/18 04:12:26;;;;;;;;;;;;;;;14.17;75.48;99378.81;1267084;23;1415;-73
2022/11/18 04:13:16;;;;;;;;;;;;;;;14.17;75.31;99375.31;1265384;23;531;-74
2022/11/18 04:14:06;;;;;;;;;;;;;;;14.20;75.20;99373.16;1265554;23;626;-73
2022/11/18 04:14:57;;;;;;;;;;;;;;;14.22;75.35;99381.03;1265704;23;677;-74
2022/11/18 04:15:47;;;;;;;;;;;;;;;14.25;75.34;99381.56;1265467;23;622;-74
2022/11/18 04:16:38;;;;;;;;;;;;;;;14.23;75.23;99388.09;1265695;23;666;-73
2022/11/18 04:17:28;;;;;;;;;;;;;;;14.20;75.22;99391.06;1265468;23;661;-73
2022/11/18 04:18:18;;;;;;;;;;;;;;;14.18;75.04;99390.38;1261148;23;764;-73
2022/11/18 04:19:09;;;;;;;;;;;;;;;14.19;75.23;99384.88;1262103;23;622;-74
2022/11/18 04:19:59;;;;;;;;;;;;;;;14.23;75.33;99383.56;1267590;23;712;-72
2022/11/18 04:20:50;;;;;;;;;;;;;;;14.21;75.36;99382.88;1266652;23;785;-73
2022/11/18 04:21:40;;;;;;;;;;;;;;;14.17;75.17;99389.53;1261062;23;626;-72
2022/11/18 04:22:31;;;;;;;;;;;;;;;14.14;75.73;99395.25;1261983;23;685;-72
2022/11/18 04:23:21;;;;;;;;;;;;;;;14.15;75.40;99391.53;1267750;23;656;-73
2022/11/18 04:24:12;;;;;;;;;;;;;;;14.18;75.11;99393.91;1265501;23;788;-73
2022/11/18 04:25:02;;;;;;;;;;;;;;;14.13;75.72;99395.41;1265799;23;626;-73
2022/11/18 04:25:52;;;;;;;;;;;;;;;14.14;75.15;99400.59;1265923;23;650;-73
2022/11/18 04:26:43;;;;;;;;;;;;;;;14.15;75.18;99401.44;1266081;23;1915;-73
2022/11/18 04:27:33;;;;;;;;;;;;;;;14.18;75.32;99404.63;1265868;23;615;-73
2022/11/18 04:28:24;;;;;;;;;;;;;;;14.17;75.14;99404.78;1266136;23;630;-73
2022/11/18 04:29:14;;;;;;;;;;;;;;;14.22;75.55;99403.31;1265783;23;635;-73
2022/11/18 04:30:04;;;;;;;;;;;;;;;14.22;74.96;99411.34;1266020;23;622;-73
2022/11/18 04:30:55;;;;;;;;;;;;;;;14.21;74.90;99412.34;1266637;23;677;-74
2022/11/18 04:31:45;;;;;;;;;;;;;;;14.19;75.35;99408.16;1265956;23;623;-74
2022/11/18 04:32:36;;;;;;;;;;;;;;;14.13;75.33;99420.34;1266106;23;689;-74
2022/11/18 04:33:26;;;;;;;;;;;;;;;14.11;75.70;99413.47;1265762;23;665;-74
2022/11/18 04:34:16;;;;;;;;;;;;;;;14.14;75.29;99411.31;1265961;23;705;-74
2022/11/18 04:35:07;;;;;;;;;;;;;;;14.14;75.68;99411.31;1265734;23;622;-73
2022/11/18 04:35:57;;;;;;;;;;;;;;;14.17;75.34;99419.00;1265887;23;627;-73
2022/11/18 04:36:48;;;;;;;;;;;;;;;14.18;75.10;99418.03;1266092;23;642;-74
2022/11/18 04:37:38;;;;;;;;;;;;;;;14.18;75.32;99423.38;1265976;23;674;-74
2022/11/18 04:38:29;;;;;;;;;;;;;;;14.15;75.10;99418.31;1265498;23;661;-73